sensor_id;sensor_type;location;lat;lon;timestamp;temperature;humidity
51215;DHT22;63849;47.546;19.254;2023-04-25T00:02:05;12.10;83.60
51215;DHT22;63849;47.546;19.254;2023-04-25T00:04:32;12.10;83.80
51215;DHT22;63849;47.546;19.254;2023-04-25T00:06:59;12.10;83.80
51215;DHT22;63849;47.546;19.254;2023-04-25T00:09:31;12.10;83.80
51215;DHT22;63849;47.546;19.254;2023-04-25T00:11:57;12.10;83.70
51215;DHT22;63849;47.546;19.254;2023-04-25T00:14:23;11.90;84.10
51215;DHT22;63849;47.546;19.254;2023-04-25T00:16:48;11.90;84.30
51215;DHT22;63849;47.546;19.254;2023-04-25T00:19:17;12.00;83.80
51215;DHT22;63849;47.546;19.254;2023-04-25T00:21:42;11.90;84.00
51215;DHT22;63849;47.546;19.254;2023-04-25T00:24:12;11.90;84.00
51215;DHT22;63849;47.546;19.254;2023-04-25T00:26:41;11.90;84.30
51215;DHT22;63849;47.546;19.254;2023-04-25T00:29:08;12.00;84.00
51215;DHT22;63849;47.546;19.254;2023-04-25T00:31:33;12.00;83.80
51215;DHT22;63849;47.546;19.254;2023-04-25T00:33:59;12.00;83.50
51215;DHT22;63849;47.546;19.254;2023-04-25T00:36:25;12.00;83.70
51215;DHT22;63849;47.546;19.254;2023-04-25T00:38:52;11.90;83.20
51215;DHT22;63849;47.546;19.254;2023-04-25T00:41:18;11.90;82.90
51215;DHT22;63849;47.546;19.254;2023-04-25T00:43:48;11.90;83.00
51215;DHT22;63849;47.546;19.254;2023-04-25T00:46:17;11.80;82.40
51215;DHT22;63849;47.546;19.254;2023-04-25T00:48:43;11.80;82.80
51215;DHT22;63849;47.546;19.254;2023-04-25T00:51:12;11.80;82.60
51215;DHT22;63849;47.546;19.254;2023-04-25T00:53:39;11.80;81.70
51215;DHT22;63849;47.546;19.254;2023-04-25T00:56:05;11.70;82.20
51215;DHT22;63849;47.546;19.254;2023-04-25T00:58:31;11.70;81.70
51215;DHT22;63849;47.546;19.254;2023-04-25T01:01:01;11.80;81.10
51215;DHT22;63849;47.546;19.254;2023-04-25T01:03:26;11.70;81.10
51215;DHT22;63849;47.546;19.254;2023-04-25T01:05:56;11.70;80.50
51215;DHT22;63849;47.546;19.254;2023-04-25T01:08:24;11.50;80.10
51215;DHT22;63849;47.546;19.254;2023-04-25T01:10:53;11.50;81.00
51215;DHT22;63849;47.546;19.254;2023-04-25T01:13:19;11.50;80.30
51215;DHT22;63849;47.546;19.254;2023-04-25T01:15:45;11.60;80.40
51215;DHT22;63849;47.546;19.254;2023-04-25T01:18:12;11.60;80.10
51215;DHT22;63849;47.546;19.254;2023-04-25T01:20:41;11.60;79.60
51215;DHT22;63849;47.546;19.254;2023-04-25T01:23:08;11.60;79.80
51215;DHT22;63849;47.546;19.254;2023-04-25T01:25:34;11.60;79.30
51215;DHT22;63849;47.546;19.254;2023-04-25T01:28:00;11.60;79.00
51215;DHT22;63849;47.546;19.254;2023-04-25T01:30:26;11.60;79.00
51215;DHT22;63849;47.546;19.254;2023-04-25T01:32:57;11.50;79.20
51215;DHT22;63849;47.546;19.254;2023-04-25T01:35:23;11.60;79.20
51215;DHT22;63849;47.546;19.254;2023-04-25T01:37:50;11.50;79.40
51215;DHT22;63849;47.546;19.254;2023-04-25T01:40:18;11.70;79.30
51215;DHT22;63849;47.546;19.254;2023-04-25T01:42:45;11.70;79.50
51215;DHT22;63849;47.546;19.254;2023-04-25T01:45:11;11.60;79.80
51215;DHT22;63849;47.546;19.254;2023-04-25T01:47:38;11.60;79.80
51215;DHT22;63849;47.546;19.254;2023-04-25T01:50:06;11.60;80.00
51215;DHT22;63849;47.546;19.254;2023-04-25T01:52:34;11.60;79.90
51215;DHT22;63849;47.546;19.254;2023-04-25T01:55:01;11.50;80.00
51215;DHT22;63849;47.546;19.254;2023-04-25T01:57:27;11.50;80.30
51215;DHT22;63849;47.546;19.254;2023-04-25T01:59:59;11.50;80.50
51215;DHT22;63849;47.546;19.254;2023-04-25T02:02:25;11.40;80.20
51215;DHT22;63849;47.546;19.254;2023-04-25T02:04:51;11.40;80.70
51215;DHT22;63849;47.546;19.254;2023-04-25T02:07:17;11.30;80.60
51215;DHT22;63849;47.546;19.254;2023-04-25T02:09:43;11.30;81.00
51215;DHT22;63849;47.546;19.254;2023-04-25T02:12:10;11.20;80.80
51215;DHT22;63849;47.546;19.254;2023-04-25T02:14:36;11.20;81.10
51215;DHT22;63849;47.546;19.254;2023-04-25T02:17:02;11.20;81.10
51215;DHT22;63849;47.546;19.254;2023-04-25T02:19:28;11.20;81.50
51215;DHT22;63849;47.546;19.254;2023-04-25T02:21:54;11.20;81.40
51215;DHT22;63849;47.546;19.254;2023-04-25T02:24:20;11.20;81.10
51215;DHT22;63849;47.546;19.254;2023-04-25T02:26:46;11.20;81.20
51215;DHT22;63849;47.546;19.254;2023-04-25T02:29:12;11.30;81.60
51215;DHT22;63849;47.546;19.254;2023-04-25T02:31:38;11.20;81.50
51215;DHT22;63849;47.546;19.254;2023-04-25T02:34:04;11.30;81.20
51215;DHT22;63849;47.546;19.254;2023-04-25T02:36:35;11.30;81.20
51215;DHT22;63849;47.546;19.254;2023-04-25T02:39:01;11.30;81.10
51215;DHT22;63849;47.546;19.254;2023-04-25T02:41:28;11.40;81.00
51215;DHT22;63849;47.546;19.254;2023-04-25T02:43:56;11.40;80.50
51215;DHT22;63849;47.546;19.254;2023-04-25T02:46:22;11.40;79.90
51215;DHT22;63849;47.546;19.254;2023-04-25T02:48:48;11.40;80.00
51215;DHT22;63849;47.546;19.254;2023-04-25T02:51:14;11.30;78.80
51215;DHT22;63849;47.546;19.254;2023-04-25T02:53:41;11.40;79.40
51215;DHT22;63849;47.546;19.254;2023-04-25T02:56:07;11.40;78.80
51215;DHT22;63849;47.546;19.254;2023-04-25T02:58:33;11.40;77.60
51215;DHT22;63849;47.546;19.254;2023-04-25T03:00:59;11.30;78.10
51215;DHT22;63849;47.546;19.254;2023-04-25T03:03:26;11.30;77.20
51215;DHT22;63849;47.546;19.254;2023-04-25T03:05:52;11.30;77.50
51215;DHT22;63849;47.546;19.254;2023-04-25T03:08:18;11.20;76.10
51215;DHT22;63849;47.546;19.254;2023-04-25T03:10:44;11.20;75.20
51215;DHT22;63849;47.546;19.254;2023-04-25T03:13:10;11.30;75.40
51215;DHT22;63849;47.546;19.254;2023-04-25T03:15:37;11.30;75.60
51215;DHT22;63849;47.546;19.254;2023-04-25T03:18:03;11.30;75.60
51215;DHT22;63849;47.546;19.254;2023-04-25T03:20:29;11.30;75.60
51215;DHT22;63849;47.546;19.254;2023-04-25T03:22:55;11.20;74.20
51215;DHT22;63849;47.546;19.254;2023-04-25T03:25:24;11.20;74.00
51215;DHT22;63849;47.546;19.254;2023-04-25T03:27:50;11.30;74.70
51215;DHT22;63849;47.546;19.254;2023-04-25T03:30:16;11.30;73.20
51215;DHT22;63849;47.546;19.254;2023-04-25T03:32:45;11.30;73.70
51215;DHT22;63849;47.546;19.254;2023-04-25T03:35:11;11.20;73.80
51215;DHT22;63849;47.546;19.254;2023-04-25T03:37:37;11.30;73.80
51215;DHT22;63849;47.546;19.254;2023-04-25T03:40:03;11.30;73.90
51215;DHT22;63849;47.546;19.254;2023-04-25T03:42:29;11.30;74.70
51215;DHT22;63849;47.546;19.254;2023-04-25T03:44:55;11.20;74.20
51215;DHT22;63849;47.546;19.254;2023-04-25T03:47:21;11.10;74.30
51215;DHT22;63849;47.546;19.254;2023-04-25T03:49:47;11.10;74.30
51215;DHT22;63849;47.546;19.254;2023-04-25T03:52:14;11.20;75.10
51215;DHT22;63849;47.546;19.254;2023-04-25T03:54:40;11.20;74.80
51215;DHT22;63849;47.546;19.254;2023-04-25T03:57:06;11.20;73.80
51215;DHT22;63849;47.546;19.254;2023-04-25T03:59:32;11.20;74.40
51215;DHT22;63849;47.546;19.254;2023-04-25T04:02:02;11.20;74.10
51215;DHT22;63849;47.546;19.254;2023-04-25T04:04:28;11.20;73.10
51215;DHT22;63849;47.546;19.254;2023-04-25T04:06:54;11.20;73.80
51215;DHT22;63849;47.546;19.254;2023-04-25T04:09:20;11.20;73.30
51215;DHT22;63849;47.546;19.254;2023-04-25T04:11:46;11.30;73.80
51215;DHT22;63849;47.546;19.254;2023-04-25T04:14:11;11.30;73.00
51215;DHT22;63849;47.546;19.254;2023-04-25T04:16:37;11.20;73.10
51215;DHT22;63849;47.546;19.254;2023-04-25T04:19:03;11.20;72.50
51215;DHT22;63849;47.546;19.254;2023-04-25T04:21:29;11.10;72.40
51215;DHT22;63849;47.546;19.254;2023-04-25T04:23:55;11.10;72.00
51215;DHT22;63849;47.546;19.254;2023-04-25T04:26:23;11.20;71.70
51215;DHT22;63849;47.546;19.254;2023-04-25T04:28:50;11.20;72.20
51215;DHT22;63849;47.546;19.254;2023-04-25T04:31:20;11.20;72.10
51215;DHT22;63849;47.546;19.254;2023-04-25T04:33:47;11.30;72.60
51215;DHT22;63849;47.546;19.254;2023-04-25T04:36:13;11.30;72.70
51215;DHT22;63849;47.546;19.254;2023-04-25T04:38:39;11.40;72.80
51215;DHT22;63849;47.546;19.254;2023-04-25T04:41:06;11.40;73.30
51215;DHT22;63849;47.546;19.254;2023-04-25T04:43:32;11.40;72.90
51215;DHT22;63849;47.546;19.254;2023-04-25T04:46:00;11.40;74.00
51215;DHT22;63849;47.546;19.254;2023-04-25T04:48:26;11.30;73.30
51215;DHT22;63849;47.546;19.254;2023-04-25T04:50:53;11.40;74.00
51215;DHT22;63849;47.546;19.254;2023-04-25T04:53:19;11.30;75.50
51215;DHT22;63849;47.546;19.254;2023-04-25T04:55:45;11.30;75.70
51215;DHT22;63849;47.546;19.254;2023-04-25T04:58:11;11.30;75.80
51215;DHT22;63849;47.546;19.254;2023-04-25T05:00:37;11.30;76.20
51215;DHT22;63849;47.546;19.254;2023-04-25T05:03:09;11.30;76.30
51215;DHT22;63849;47.546;19.254;2023-04-25T05:05:37;11.30;76.70
51215;DHT22;63849;47.546;19.254;2023-04-25T05:08:05;11.20;76.90
51215;DHT22;63849;47.546;19.254;2023-04-25T05:10:31;11.30;77.60
51215;DHT22;63849;47.546;19.254;2023-04-25T05:12:57;11.40;77.60
51215;DHT22;63849;47.546;19.254;2023-04-25T05:15:23;11.40;77.50
51215;DHT22;63849;47.546;19.254;2023-04-25T05:17:48;11.30;77.80
51215;DHT22;63849;47.546;19.254;2023-04-25T05:20:14;11.40;77.80
51215;DHT22;63849;47.546;19.254;2023-04-25T05:22:40;11.40;77.40
51215;DHT22;63849;47.546;19.254;2023-04-25T05:25:08;11.50;77.80
51215;DHT22;63849;47.546;19.254;2023-04-25T05:27:34;11.40;77.80
51215;DHT22;63849;47.546;19.254;2023-04-25T05:30:00;11.40;77.60
51215;DHT22;63849;47.546;19.254;2023-04-25T05:32:26;11.40;77.10
51215;DHT22;63849;47.546;19.254;2023-04-25T05:34:52;11.50;77.60
51215;DHT22;63849;47.546;19.254;2023-04-25T05:37:17;11.60;78.00
51215;DHT22;63849;47.546;19.254;2023-04-25T05:39:43;11.50;78.30
51215;DHT22;63849;47.546;19.254;2023-04-25T05:42:09;11.60;78.90
51215;DHT22;63849;47.546;19.254;2023-04-25T05:44:35;11.30;78.00
51215;DHT22;63849;47.546;19.254;2023-04-25T05:47:01;11.40;78.50
51215;DHT22;63849;47.546;19.254;2023-04-25T05:49:27;11.30;78.80
51215;DHT22;63849;47.546;19.254;2023-04-25T05:51:53;11.30;79.30
51215;DHT22;63849;47.546;19.254;2023-04-25T05:54:18;11.30;79.70
51215;DHT22;63849;47.546;19.254;2023-04-25T05:56:44;11.40;79.00
51215;DHT22;63849;47.546;19.254;2023-04-25T05:59:10;11.10;78.90
51215;DHT22;63849;47.546;19.254;2023-04-25T06:01:36;11.10;80.60
51215;DHT22;63849;47.546;19.254;2023-04-25T06:04:01;10.90;80.50
51215;DHT22;63849;47.546;19.254;2023-04-25T06:06:27;10.90;80.60
51215;DHT22;63849;47.546;19.254;2023-04-25T06:08:53;10.90;78.90
51215;DHT22;63849;47.546;19.254;2023-04-25T06:11:20;10.80;79.90
51215;DHT22;63849;47.546;19.254;2023-04-25T06:13:46;10.60;81.70
51215;DHT22;63849;47.546;19.254;2023-04-25T06:16:12;10.70;81.50
51215;DHT22;63849;47.546;19.254;2023-04-25T06:18:38;10.60;82.50
51215;DHT22;63849;47.546;19.254;2023-04-25T06:21:04;10.40;82.70
51215;DHT22;63849;47.546;19.254;2023-04-25T06:23:30;10.60;82.00
51215;DHT22;63849;47.546;19.254;2023-04-25T06:25:55;10.50;82.80
51215;DHT22;63849;47.546;19.254;2023-04-25T06:28:21;10.50;82.70
51215;DHT22;63849;47.546;19.254;2023-04-25T06:30:47;10.40;83.50
51215;DHT22;63849;47.546;19.254;2023-04-25T06:33:13;10.10;84.30
51215;DHT22;63849;47.546;19.254;2023-04-25T06:35:39;10.10;84.60
51215;DHT22;63849;47.546;19.254;2023-04-25T06:38:05;10.20;85.20
51215;DHT22;63849;47.546;19.254;2023-04-25T06:40:31;10.10;85.30
51215;DHT22;63849;47.546;19.254;2023-04-25T06:42:56;9.90;85.90
51215;DHT22;63849;47.546;19.254;2023-04-25T06:45:22;9.80;86.60
51215;DHT22;63849;47.546;19.254;2023-04-25T06:47:48;9.90;87.40
51215;DHT22;63849;47.546;19.254;2023-04-25T06:50:13;9.80;88.00
51215;DHT22;63849;47.546;19.254;2023-04-25T06:52:39;9.90;87.50
51215;DHT22;63849;47.546;19.254;2023-04-25T06:55:05;9.80;88.40
51215;DHT22;63849;47.546;19.254;2023-04-25T06:57:31;9.90;89.10
51215;DHT22;63849;47.546;19.254;2023-04-25T06:59:57;10.10;88.90
51215;DHT22;63849;47.546;19.254;2023-04-25T07:02:23;9.90;88.60
51215;DHT22;63849;47.546;19.254;2023-04-25T07:04:48;10.30;89.50
51215;DHT22;63849;47.546;19.254;2023-04-25T07:07:17;10.50;89.10
51215;DHT22;63849;47.546;19.254;2023-04-25T07:09:43;10.60;88.40
51215;DHT22;63849;47.546;19.254;2023-04-25T07:12:09;10.70;88.60
51215;DHT22;63849;47.546;19.254;2023-04-25T07:14:35;10.80;87.70
51215;DHT22;63849;47.546;19.254;2023-04-25T07:17:00;10.80;87.90
51215;DHT22;63849;47.546;19.254;2023-04-25T07:19:26;11.20;87.80
51215;DHT22;63849;47.546;19.254;2023-04-25T07:21:55;11.20;87.80
51215;DHT22;63849;47.546;19.254;2023-04-25T07:24:20;11.40;87.00
51215;DHT22;63849;47.546;19.254;2023-04-25T07:26:46;11.10;86.30
51215;DHT22;63849;47.546;19.254;2023-04-25T07:29:12;11.20;86.10
51215;DHT22;63849;47.546;19.254;2023-04-25T07:31:38;11.40;86.50
51215;DHT22;63849;47.546;19.254;2023-04-25T07:34:04;11.50;86.00
51215;DHT22;63849;47.546;19.254;2023-04-25T07:36:31;11.40;84.90
51215;DHT22;63849;47.546;19.254;2023-04-25T07:38:57;11.50;86.70
51215;DHT22;63849;47.546;19.254;2023-04-25T07:41:22;11.70;85.10
51215;DHT22;63849;47.546;19.254;2023-04-25T07:43:48;12.00;85.10
51215;DHT22;63849;47.546;19.254;2023-04-25T07:46:14;12.40;85.40
51215;DHT22;63849;47.546;19.254;2023-04-25T07:48:40;12.20;85.30
51215;DHT22;63849;47.546;19.254;2023-04-25T07:51:06;12.60;84.90
51215;DHT22;63849;47.546;19.254;2023-04-25T07:53:32;12.80;82.80
51215;DHT22;63849;47.546;19.254;2023-04-25T07:56:00;12.90;85.50
51215;DHT22;63849;47.546;19.254;2023-04-25T07:58:26;13.00;81.30
51215;DHT22;63849;47.546;19.254;2023-04-25T08:00:51;13.00;82.60
51215;DHT22;63849;47.546;19.254;2023-04-25T08:03:17;13.30;82.20
51215;DHT22;63849;47.546;19.254;2023-04-25T08:05:43;13.40;82.60
51215;DHT22;63849;47.546;19.254;2023-04-25T08:08:08;13.50;82.30
51215;DHT22;63849;47.546;19.254;2023-04-25T08:10:34;13.40;81.60
51215;DHT22;63849;47.546;19.254;2023-04-25T08:13:00;13.60;83.50
51215;DHT22;63849;47.546;19.254;2023-04-25T08:15:26;13.90;82.00
51215;DHT22;63849;47.546;19.254;2023-04-25T08:17:52;14.10;79.80
51215;DHT22;63849;47.546;19.254;2023-04-25T08:20:18;14.40;79.10
51215;DHT22;63849;47.546;19.254;2023-04-25T08:22:43;14.40;79.50
51215;DHT22;63849;47.546;19.254;2023-04-25T08:25:09;14.50;78.20
51215;DHT22;63849;47.546;19.254;2023-04-25T08:27:35;14.60;79.30
51215;DHT22;63849;47.546;19.254;2023-04-25T08:30:03;14.70;76.80
51215;DHT22;63849;47.546;19.254;2023-04-25T08:32:29;14.90;79.10
51215;DHT22;63849;47.546;19.254;2023-04-25T08:34:55;14.80;76.40
51215;DHT22;63849;47.546;19.254;2023-04-25T08:37:21;15.00;76.10
51215;DHT22;63849;47.546;19.254;2023-04-25T08:39:47;14.90;75.20
51215;DHT22;63849;47.546;19.254;2023-04-25T08:42:15;14.70;74.60
51215;DHT22;63849;47.546;19.254;2023-04-25T08:44:41;14.60;75.40
51215;DHT22;63849;47.546;19.254;2023-04-25T08:47:06;14.50;76.50
51215;DHT22;63849;47.546;19.254;2023-04-25T08:49:33;14.30;75.20
51215;DHT22;63849;47.546;19.254;2023-04-25T08:52:04;14.40;75.70
51215;DHT22;63849;47.546;19.254;2023-04-25T08:54:32;14.60;75.50
51215;DHT22;63849;47.546;19.254;2023-04-25T08:57:01;14.70;74.90
51215;DHT22;63849;47.546;19.254;2023-04-25T08:59:32;14.50;73.60
51215;DHT22;63849;47.546;19.254;2023-04-25T09:01:58;14.50;72.90
51215;DHT22;63849;47.546;19.254;2023-04-25T09:04:25;14.50;73.60
51215;DHT22;63849;47.546;19.254;2023-04-25T09:06:51;14.20;72.60
51215;DHT22;63849;47.546;19.254;2023-04-25T09:09:17;14.30;71.80
51215;DHT22;63849;47.546;19.254;2023-04-25T09:11:43;14.20;73.80
51215;DHT22;63849;47.546;19.254;2023-04-25T09:14:17;14.50;71.70
51215;DHT22;63849;47.546;19.254;2023-04-25T09:16:59;14.80;70.80
51215;DHT22;63849;47.546;19.254;2023-04-25T09:21:57;14.90;69.50
51215;DHT22;63849;47.546;19.254;2023-04-25T09:24:37;14.60;69.80
51215;DHT22;63849;47.546;19.254;2023-04-25T09:27:05;14.40;70.80
51215;DHT22;63849;47.546;19.254;2023-04-25T09:29:32;14.60;70.40
51215;DHT22;63849;47.546;19.254;2023-04-25T09:32:11;14.90;68.50
51215;DHT22;63849;47.546;19.254;2023-04-25T09:34:42;14.70;68.60
51215;DHT22;63849;47.546;19.254;2023-04-25T09:37:09;14.70;70.70
51215;DHT22;63849;47.546;19.254;2023-04-25T09:39:37;14.90;69.00
51215;DHT22;63849;47.546;19.254;2023-04-25T09:42:06;14.90;67.00
51215;DHT22;63849;47.546;19.254;2023-04-25T09:44:32;15.00;69.40
51215;DHT22;63849;47.546;19.254;2023-04-25T09:46:57;15.50;67.50
51215;DHT22;63849;47.546;19.254;2023-04-25T09:49:25;15.70;66.10
51215;DHT22;63849;47.546;19.254;2023-04-25T09:51:58;15.20;66.60
51215;DHT22;63849;47.546;19.254;2023-04-25T09:54:25;15.10;65.70
51215;DHT22;63849;47.546;19.254;2023-04-25T09:56:54;15.40;65.80
51215;DHT22;63849;47.546;19.254;2023-04-25T09:59:21;15.30;68.60
51215;DHT22;63849;47.546;19.254;2023-04-25T10:01:49;15.00;64.90
51215;DHT22;63849;47.546;19.254;2023-04-25T10:04:24;15.30;65.20
51215;DHT22;63849;47.546;19.254;2023-04-25T10:06:53;15.30;61.80
51215;DHT22;63849;47.546;19.254;2023-04-25T10:09:21;14.80;63.40
51215;DHT22;63849;47.546;19.254;2023-04-25T10:11:50;15.30;62.70
51215;DHT22;63849;47.546;19.254;2023-04-25T10:14:18;15.30;62.20
51215;DHT22;63849;47.546;19.254;2023-04-25T10:16:45;15.10;61.80
51215;DHT22;63849;47.546;19.254;2023-04-25T10:19:11;15.30;63.30
51215;DHT22;63849;47.546;19.254;2023-04-25T10:21:44;15.30;61.10
51215;DHT22;63849;47.546;19.254;2023-04-25T10:24:11;14.80;61.30
51215;DHT22;63849;47.546;19.254;2023-04-25T10:26:38;14.80;61.00
51215;DHT22;63849;47.546;19.254;2023-04-25T10:29:04;14.90;62.00
51215;DHT22;63849;47.546;19.254;2023-04-25T10:31:30;14.90;63.40
51215;DHT22;63849;47.546;19.254;2023-04-25T10:33:56;14.80;64.00
51215;DHT22;63849;47.546;19.254;2023-04-25T10:36:23;14.30;63.70
51215;DHT22;63849;47.546;19.254;2023-04-25T10:38:52;14.10;64.10
51215;DHT22;63849;47.546;19.254;2023-04-25T10:41:20;14.00;64.80
51215;DHT22;63849;47.546;19.254;2023-04-25T10:43:49;14.10;65.70
51215;DHT22;63849;47.546;19.254;2023-04-25T10:46:26;14.10;64.50
51215;DHT22;63849;47.546;19.254;2023-04-25T10:48:54;14.00;63.00
51215;DHT22;63849;47.546;19.254;2023-04-25T10:51:30;14.10;62.70
51215;DHT22;63849;47.546;19.254;2023-04-25T10:53:58;14.40;62.80
51215;DHT22;63849;47.546;19.254;2023-04-25T10:56:29;14.10;61.40
51215;DHT22;63849;47.546;19.254;2023-04-25T10:59:16;14.40;60.50
51215;DHT22;63849;47.546;19.254;2023-04-25T11:01:44;14.60;61.10
51215;DHT22;63849;47.546;19.254;2023-04-25T11:04:29;14.40;59.00
51215;DHT22;63849;47.546;19.254;2023-04-25T11:09:28;15.00;60.40
51215;DHT22;63849;47.546;19.254;2023-04-25T11:11:55;15.30;61.60
51215;DHT22;63849;47.546;19.254;2023-04-25T11:14:22;15.70;60.60
51215;DHT22;63849;47.546;19.254;2023-04-25T11:16:58;15.60;58.50
51215;DHT22;63849;47.546;19.254;2023-04-25T11:19:25;15.60;57.70
51215;DHT22;63849;47.546;19.254;2023-04-25T11:21:55;15.40;58.30
51215;DHT22;63849;47.546;19.254;2023-04-25T11:24:27;15.60;56.60
51215;DHT22;63849;47.546;19.254;2023-04-25T11:26:53;15.40;56.40
51215;DHT22;63849;47.546;19.254;2023-04-25T11:29:22;15.40;58.00
51215;DHT22;63849;47.546;19.254;2023-04-25T11:31:49;15.50;55.90
51215;DHT22;63849;47.546;19.254;2023-04-25T11:34:19;15.00;58.60
51215;DHT22;63849;47.546;19.254;2023-04-25T11:36:46;15.00;57.10
51215;DHT22;63849;47.546;19.254;2023-04-25T11:39:12;15.50;58.00
51215;DHT22;63849;47.546;19.254;2023-04-25T11:41:38;16.00;55.60
51215;DHT22;63849;47.546;19.254;2023-04-25T11:44:05;15.80;55.00
51215;DHT22;63849;47.546;19.254;2023-04-25T11:46:33;15.60;54.60
51215;DHT22;63849;47.546;19.254;2023-04-25T11:49:02;15.40;55.10
51215;DHT22;63849;47.546;19.254;2023-04-25T11:51:30;15.20;58.10
51215;DHT22;63849;47.546;19.254;2023-04-25T11:54:03;15.50;57.80
51215;DHT22;63849;47.546;19.254;2023-04-25T11:56:28;15.40;56.60
51215;DHT22;63849;47.546;19.254;2023-04-25T12:01:31;15.40;55.40
51215;DHT22;63849;47.546;19.254;2023-04-25T12:04:20;15.00;55.00
51215;DHT22;63849;47.546;19.254;2023-04-25T12:06:45;15.40;55.90
51215;DHT22;63849;47.546;19.254;2023-04-25T12:09:28;15.70;56.00
51215;DHT22;63849;47.546;19.254;2023-04-25T12:11:55;15.60;53.50
51215;DHT22;63849;47.546;19.254;2023-04-25T12:14:24;15.60;53.80
51215;DHT22;63849;47.546;19.254;2023-04-25T12:16:50;15.60;53.20
51215;DHT22;63849;47.546;19.254;2023-04-25T12:19:18;15.60;54.80
51215;DHT22;63849;47.546;19.254;2023-04-25T12:21:44;15.00;52.00
51215;DHT22;63849;47.546;19.254;2023-04-25T12:24:11;15.10;52.70
51215;DHT22;63849;47.546;19.254;2023-04-25T12:26:48;15.30;53.40
51215;DHT22;63849;47.546;19.254;2023-04-25T12:29:24;15.40;53.80
51215;DHT22;63849;47.546;19.254;2023-04-25T12:31:51;15.30;53.90
51215;DHT22;63849;47.546;19.254;2023-04-25T12:34:21;15.30;52.90
51215;DHT22;63849;47.546;19.254;2023-04-25T12:36:48;15.40;52.60
51215;DHT22;63849;47.546;19.254;2023-04-25T12:39:15;15.40;54.10
51215;DHT22;63849;47.546;19.254;2023-04-25T12:41:41;15.50;53.30
51215;DHT22;63849;47.546;19.254;2023-04-25T12:44:07;15.60;52.50
51215;DHT22;63849;47.546;19.254;2023-04-25T12:46:33;15.80;53.20
51215;DHT22;63849;47.546;19.254;2023-04-25T12:48:59;15.80;52.50
51215;DHT22;63849;47.546;19.254;2023-04-25T12:51:25;15.60;51.10
51215;DHT22;63849;47.546;19.254;2023-04-25T12:53:53;15.60;52.30
51215;DHT22;63849;47.546;19.254;2023-04-25T12:56:19;15.90;51.90
51215;DHT22;63849;47.546;19.254;2023-04-25T12:58:45;15.80;52.50
51215;DHT22;63849;47.546;19.254;2023-04-25T13:01:11;16.40;53.00
51215;DHT22;63849;47.546;19.254;2023-04-25T13:03:37;16.60;51.90
51215;DHT22;63849;47.546;19.254;2023-04-25T13:06:03;16.40;53.20
51215;DHT22;63849;47.546;19.254;2023-04-25T13:08:30;16.50;51.40
51215;DHT22;63849;47.546;19.254;2023-04-25T13:10:55;16.50;51.80
51215;DHT22;63849;47.546;19.254;2023-04-25T13:13:21;16.60;50.60
51215;DHT22;63849;47.546;19.254;2023-04-25T13:15:47;16.50;51.10
51215;DHT22;63849;47.546;19.254;2023-04-25T13:18:15;16.40;52.10
51215;DHT22;63849;47.546;19.254;2023-04-25T13:20:41;16.50;53.80
51215;DHT22;63849;47.546;19.254;2023-04-25T13:23:07;16.40;50.70
51215;DHT22;63849;47.546;19.254;2023-04-25T13:25:34;16.30;51.50
51215;DHT22;63849;47.546;19.254;2023-04-25T13:28:00;16.30;50.10
51215;DHT22;63849;47.546;19.254;2023-04-25T13:30:25;16.20;50.40
51215;DHT22;63849;47.546;19.254;2023-04-25T13:32:51;15.90;51.30
51215;DHT22;63849;47.546;19.254;2023-04-25T13:35:18;15.90;51.90
51215;DHT22;63849;47.546;19.254;2023-04-25T13:37:44;15.50;49.40
51215;DHT22;63849;47.546;19.254;2023-04-25T13:40:11;14.90;50.60
51215;DHT22;63849;47.546;19.254;2023-04-25T13:42:38;14.90;51.50
51215;DHT22;63849;47.546;19.254;2023-04-25T13:45:04;15.20;50.40
51215;DHT22;63849;47.546;19.254;2023-04-25T13:47:30;15.10;48.30
51215;DHT22;63849;47.546;19.254;2023-04-25T13:49:56;15.20;49.80
51215;DHT22;63849;47.546;19.254;2023-04-25T13:52:22;15.10;48.50
51215;DHT22;63849;47.546;19.254;2023-04-25T13:54:50;15.30;49.70
51215;DHT22;63849;47.546;19.254;2023-04-25T13:57:17;15.20;47.40
51215;DHT22;63849;47.546;19.254;2023-04-25T13:59:42;15.10;49.40
51215;DHT22;63849;47.546;19.254;2023-04-25T14:02:09;15.30;50.50
51215;DHT22;63849;47.546;19.254;2023-04-25T14:04:34;15.00;46.90
51215;DHT22;63849;47.546;19.254;2023-04-25T14:07:01;14.90;48.00
51215;DHT22;63849;47.546;19.254;2023-04-25T14:09:28;14.70;48.90
51215;DHT22;63849;47.546;19.254;2023-04-25T14:11:54;14.70;51.40
51215;DHT22;63849;47.546;19.254;2023-04-25T14:14:21;14.60;48.30
51215;DHT22;63849;47.546;19.254;2023-04-25T14:16:47;14.70;49.90
51215;DHT22;63849;47.546;19.254;2023-04-25T14:19:14;14.90;52.10
51215;DHT22;63849;47.546;19.254;2023-04-25T14:21:40;14.70;47.00
51215;DHT22;63849;47.546;19.254;2023-04-25T14:24:06;14.80;48.40
51215;DHT22;63849;47.546;19.254;2023-04-25T14:26:36;14.70;49.80
51215;DHT22;63849;47.546;19.254;2023-04-25T14:29:05;14.70;49.50
51215;DHT22;63849;47.546;19.254;2023-04-25T14:31:37;14.60;49.70
51215;DHT22;63849;47.546;19.254;2023-04-25T14:34:07;14.60;49.20
51215;DHT22;63849;47.546;19.254;2023-04-25T14:36:33;14.60;48.50
51215;DHT22;63849;47.546;19.254;2023-04-25T14:38:59;14.70;49.10
51215;DHT22;63849;47.546;19.254;2023-04-25T14:41:25;14.70;48.40
51215;DHT22;63849;47.546;19.254;2023-04-25T14:43:52;14.70;47.40
51215;DHT22;63849;47.546;19.254;2023-04-25T14:46:19;14.60;46.70
51215;DHT22;63849;47.546;19.254;2023-04-25T14:48:45;14.60;49.40
51215;DHT22;63849;47.546;19.254;2023-04-25T14:51:12;14.60;48.50
51215;DHT22;63849;47.546;19.254;2023-04-25T14:53:40;14.50;49.90
51215;DHT22;63849;47.546;19.254;2023-04-25T14:56:06;14.50;49.20
51215;DHT22;63849;47.546;19.254;2023-04-25T14:58:33;14.40;48.60
51215;DHT22;63849;47.546;19.254;2023-04-25T15:00:59;14.40;51.20
51215;DHT22;63849;47.546;19.254;2023-04-25T15:03:25;14.40;50.40
51215;DHT22;63849;47.546;19.254;2023-04-25T15:05:53;14.10;49.00
51215;DHT22;63849;47.546;19.254;2023-04-25T15:08:20;14.10;48.30
51215;DHT22;63849;47.546;19.254;2023-04-25T15:10:46;14.00;48.70
51215;DHT22;63849;47.546;19.254;2023-04-25T15:13:12;13.90;49.30
51215;DHT22;63849;47.546;19.254;2023-04-25T15:15:38;14.10;49.90
51215;DHT22;63849;47.546;19.254;2023-04-25T15:18:04;14.20;47.60
51215;DHT22;63849;47.546;19.254;2023-04-25T15:20:30;14.40;49.50
51215;DHT22;63849;47.546;19.254;2023-04-25T15:22:56;14.60;49.50
51215;DHT22;63849;47.546;19.254;2023-04-25T15:25:22;14.80;48.40